sensor_id;sensor_type;location;lat;lon;timestamp;P1;durP1;ratioP1;P2;durP2;ratioP2
51066;SDS011;37112;45.892;-123.962;2023-07-08T00:01:19;7.70;;;1.80;;
51066;SDS011;37112;45.892;-123.962;2023-07-08T00:03:38;10.70;;;1.40;;
51066;SDS011;37112;45.892;-123.962;2023-07-08T00:06:10;9.90;;;1.80;;
51066;SDS011;37112;45.892;-123.962;2023-07-08T00:08:35;5.30;;;1.20;;
51066;SDS011;37112;45.892;-123.962;2023-07-08T00:11:09;9.60;;;1.60;;
51066;SDS011;37112;45.892;-123.962;2023-07-08T00:13:34;9.70;;;1.20;;
51066;SDS011;37112;45.892;-123.962;2023-07-08T00:16:07;12.70;;;2.10;;
51066;SDS011;37112;45.892;-123.962;2023-07-08T00:18:41;7.30;;;1.40;;
51066;SDS011;37112;45.892;-123.962;2023-07-08T00:21:12;11.20;;;2.20;;
51066;SDS011;37112;45.892;-123.962;2023-07-08T00:23:44;13.10;;;2.50;;
51066;SDS011;37112;45.892;-123.962;2023-07-08T00:26:21;15.30;;;1.80;;
51066;SDS011;37112;45.892;-123.962;2023-07-08T00:28:53;10.40;;;1.90;;
51066;SDS011;37112;45.892;-123.962;2023-07-08T00:31:24;5.90;;;1.20;;
51066;SDS011;37112;45.892;-123.962;2023-07-08T00:33:49;6.50;;;0.90;;
51066;SDS011;37112;45.892;-123.962;2023-07-08T00:36:22;17.20;;;3.20;;
51066;SDS011;37112;45.892;-123.962;2023-07-08T00:38:54;14.10;;;3.20;;
51066;SDS011;37112;45.892;-123.962;2023-07-08T00:41:25;19.20;;;3.90;;
51066;SDS011;37112;45.892;-123.962;2023-07-08T00:43:59;33.90;;;5.80;;
51066;SDS011;37112;45.892;-123.962;2023-07-08T00:46:33;17.20;;;3.20;;
51066;SDS011;37112;45.892;-123.962;2023-07-08T00:49:14;15.00;;;2.80;;
51066;SDS011;37112;45.892;-123.962;2023-07-08T00:51:53;8.30;;;1.30;;
51066;SDS011;37112;45.892;-123.962;2023-07-08T00:54:23;12.80;;;2.10;;
51066;SDS011;37112;45.892;-123.962;2023-07-08T00:56:53;15.00;;;2.20;;
51066;SDS011;37112;45.892;-123.962;2023-07-08T00:59:27;15.60;;;3.80;;
51066;SDS011;37112;45.892;-123.962;2023-07-08T01:01:51;20.90;;;3.60;;
51066;SDS011;37112;45.892;-123.962;2023-07-08T01:04:24;14.90;;;4.20;;
51066;SDS011;37112;45.892;-123.962;2023-07-08T01:06:59;15.40;;;2.70;;
51066;SDS011;37112;45.892;-123.962;2023-07-08T01:09:34;20.70;;;3.20;;
51066;SDS011;37112;45.892;-123.962;2023-07-08T01:12:14;22.70;;;4.00;;
51066;SDS011;37112;45.892;-123.962;2023-07-08T01:14:50;13.80;;;2.90;;
51066;SDS011;37112;45.892;-123.962;2023-07-08T01:17:23;17.90;;;4.60;;
51066;SDS011;37112;45.892;-123.962;2023-07-08T01:19:59;18.30;;;3.40;;
51066;SDS011;37112;45.892;-123.962;2023-07-08T01:22:25;16.00;;;3.10;;
51066;SDS011;37112;45.892;-123.962;2023-07-08T01:24:58;10.40;;;2.30;;
51066;SDS011;37112;45.892;-123.962;2023-07-08T01:27:29;33.20;;;5.10;;
51066;SDS011;37112;45.892;-123.962;2023-07-08T01:30:05;21.00;;;3.40;;
51066;SDS011;37112;45.892;-123.962;2023-07-08T01:32:37;23.30;;;4.30;;
51066;SDS011;37112;45.892;-123.962;2023-07-08T01:35:13;22.90;;;3.30;;
51066;SDS011;37112;45.892;-123.962;2023-07-08T01:37:51;16.80;;;3.30;;
51066;SDS011;37112;45.892;-123.962;2023-07-08T01:40:25;21.90;;;2.90;;
51066;SDS011;37112;45.892;-123.962;2023-07-08T01:42:59;12.80;;;3.00;;
51066;SDS011;37112;45.892;-123.962;2023-07-08T01:45:36;8.20;;;1.30;;
51066;SDS011;37112;45.892;-123.962;2023-07-08T01:48:10;4.50;;;1.30;;
51066;SDS011;37112;45.892;-123.962;2023-07-08T01:53:13;16.10;;;2.70;;
51066;SDS011;37112;45.892;-123.962;2023-07-08T01:55:48;16.90;;;3.10;;
51066;SDS011;37112;45.892;-123.962;2023-07-08T01:58:19;15.60;;;2.80;;
51066;SDS011;37112;45.892;-123.962;2023-07-08T02:00:50;14.70;;;1.90;;
51066;SDS011;37112;45.892;-123.962;2023-07-08T02:03:21;20.00;;;2.80;;
51066;SDS011;37112;45.892;-123.962;2023-07-08T02:05:51;11.10;;;2.10;;
51066;SDS011;37112;45.892;-123.962;2023-07-08T02:08:22;11.60;;;2.10;;
51066;SDS011;37112;45.892;-123.962;2023-07-08T02:10:52;18.70;;;3.00;;
51066;SDS011;37112;45.892;-123.962;2023-07-08T02:13:24;17.00;;;2.20;;
51066;SDS011;37112;45.892;-123.962;2023-07-08T02:15:55;28.10;;;3.70;;
51066;SDS011;37112;45.892;-123.962;2023-07-08T02:18:26;9.50;;;2.40;;
51066;SDS011;37112;45.892;-123.962;2023-07-08T02:20:59;14.40;;;2.10;;
51066;SDS011;37112;45.892;-123.962;2023-07-08T02:23:29;9.20;;;1.30;;
51066;SDS011;37112;45.892;-123.962;2023-07-08T02:26:00;6.80;;;1.40;;
51066;SDS011;37112;45.892;-123.962;2023-07-08T02:28:31;8.80;;;2.00;;
51066;SDS011;37112;45.892;-123.962;2023-07-08T02:31:03;12.50;;;2.90;;
51066;SDS011;37112;45.892;-123.962;2023-07-08T02:33:33;13.90;;;2.70;;
51066;SDS011;37112;45.892;-123.962;2023-07-08T02:36:04;12.90;;;4.10;;
51066;SDS011;37112;45.892;-123.962;2023-07-08T02:38:35;18.70;;;3.50;;
51066;SDS011;37112;45.892;-123.962;2023-07-08T02:41:06;16.10;;;4.40;;
51066;SDS011;37112;45.892;-123.962;2023-07-08T02:43:38;19.80;;;3.50;;
51066;SDS011;37112;45.892;-123.962;2023-07-08T02:46:09;17.40;;;2.90;;
51066;SDS011;37112;45.892;-123.962;2023-07-08T02:48:40;15.20;;;3.80;;
51066;SDS011;37112;45.892;-123.962;2023-07-08T02:51:11;18.30;;;6.00;;
51066;SDS011;37112;45.892;-123.962;2023-07-08T02:53:41;23.30;;;5.50;;
51066;SDS011;37112;45.892;-123.962;2023-07-08T02:56:12;29.70;;;8.30;;
51066;SDS011;37112;45.892;-123.962;2023-07-08T02:58:43;29.20;;;6.80;;
51066;SDS011;37112;45.892;-123.962;2023-07-08T03:01:14;22.90;;;6.20;;
51066;SDS011;37112;45.892;-123.962;2023-07-08T03:03:45;45.90;;;9.20;;
51066;SDS011;37112;45.892;-123.962;2023-07-08T03:06:16;32.50;;;8.00;;
51066;SDS011;37112;45.892;-123.962;2023-07-08T03:08:47;32.20;;;7.90;;
51066;SDS011;37112;45.892;-123.962;2023-07-08T03:11:17;28.90;;;7.20;;
51066;SDS011;37112;45.892;-123.962;2023-07-08T03:13:48;31.50;;;7.50;;
51066;SDS011;37112;45.892;-123.962;2023-07-08T03:16:19;37.10;;;9.30;;
51066;SDS011;37112;45.892;-123.962;2023-07-08T03:18:50;24.20;;;7.00;;
51066;SDS011;37112;45.892;-123.962;2023-07-08T03:21:20;17.10;;;5.20;;
51066;SDS011;37112;45.892;-123.962;2023-07-08T03:23:51;41.30;;;11.00;;
51066;SDS011;37112;45.892;-123.962;2023-07-08T03:26:21;39.20;;;12.90;;
51066;SDS011;37112;45.892;-123.962;2023-07-08T03:28:57;23.40;;;8.40;;
51066;SDS011;37112;45.892;-123.962;2023-07-08T03:31:27;30.00;;;11.10;;
51066;SDS011;37112;45.892;-123.962;2023-07-08T03:33:47;29.30;;;12.30;;
51066;SDS011;37112;45.892;-123.962;2023-07-08T03:36:12;52.60;;;14.70;;
51066;SDS011;37112;45.892;-123.962;2023-07-08T03:38:49;27.40;;;8.70;;
51066;SDS011;37112;45.892;-123.962;2023-07-08T03:41:20;47.60;;;13.50;;
51066;SDS011;37112;45.892;-123.962;2023-07-08T03:43:50;21.40;;;8.70;;
51066;SDS011;37112;45.892;-123.962;2023-07-08T03:46:21;14.20;;;3.40;;
51066;SDS011;37112;45.892;-123.962;2023-07-08T03:48:52;10.70;;;3.50;;
51066;SDS011;37112;45.892;-123.962;2023-07-08T03:51:23;14.80;;;4.90;;
51066;SDS011;37112;45.892;-123.962;2023-07-08T03:53:49;15.60;;;5.70;;
51066;SDS011;37112;45.892;-123.962;2023-07-08T03:56:20;19.50;;;6.30;;
51066;SDS011;37112;45.892;-123.962;2023-07-08T03:58:51;39.00;;;8.10;;
51066;SDS011;37112;45.892;-123.962;2023-07-08T04:01:22;25.00;;;8.10;;
51066;SDS011;37112;45.892;-123.962;2023-07-08T04:03:55;14.70;;;3.40;;
51066;SDS011;37112;45.892;-123.962;2023-07-08T04:06:16;20.80;;;6.20;;
51066;SDS011;37112;45.892;-123.962;2023-07-08T04:08:49;22.90;;;7.50;;
51066;SDS011;37112;45.892;-123.962;2023-07-08T04:11:24;15.50;;;5.50;;
51066;SDS011;37112;45.892;-123.962;2023-07-08T04:13:55;24.60;;;7.70;;
51066;SDS011;37112;45.892;-123.962;2023-07-08T04:16:17;30.30;;;7.60;;
51066;SDS011;37112;45.892;-123.962;2023-07-08T04:18:49;23.00;;;5.50;;
51066;SDS011;37112;45.892;-123.962;2023-07-08T04:21:21;31.40;;;10.50;;
51066;SDS011;37112;45.892;-123.962;2023-07-08T04:23:54;26.90;;;7.20;;
51066;SDS011;37112;45.892;-123.962;2023-07-08T04:26:10;32.30;;;9.20;;
51066;SDS011;37112;45.892;-123.962;2023-07-08T04:28:25;18.70;;;4.70;;
51066;SDS011;37112;45.892;-123.962;2023-07-08T04:33:28;53.60;;;15.20;;
51066;SDS011;37112;45.892;-123.962;2023-07-08T04:36:02;32.50;;;12.00;;
51066;SDS011;37112;45.892;-123.962;2023-07-08T04:38:38;44.80;;;13.30;;
51066;SDS011;37112;45.892;-123.962;2023-07-08T04:41:31;35.30;;;10.00;;
51066;SDS011;37112;45.892;-123.962;2023-07-08T04:44:08;19.10;;;6.70;;
51066;SDS011;37112;45.892;-123.962;2023-07-08T04:47:00;19.70;;;4.50;;
51066;SDS011;37112;45.892;-123.962;2023-07-08T04:49:31;15.40;;;2.60;;
51066;SDS011;37112;45.892;-123.962;2023-07-08T04:52:03;10.00;;;2.70;;
51066;SDS011;37112;45.892;-123.962;2023-07-08T04:54:48;15.70;;;2.90;;
51066;SDS011;37112;45.892;-123.962;2023-07-08T04:57:19;7.60;;;1.60;;
51066;SDS011;37112;45.892;-123.962;2023-07-08T05:00:12;6.20;;;1.10;;
51066;SDS011;37112;45.892;-123.962;2023-07-08T05:02:49;8.00;;;2.20;;
51066;SDS011;37112;45.892;-123.962;2023-07-08T05:05:21;5.00;;;1.50;;
51066;SDS011;37112;45.892;-123.962;2023-07-08T05:08:12;4.90;;;1.40;;
51066;SDS011;37112;45.892;-123.962;2023-07-08T05:10:43;5.50;;;1.20;;
51066;SDS011;37112;45.892;-123.962;2023-07-08T05:13:14;7.50;;;1.70;;
51066;SDS011;37112;45.892;-123.962;2023-07-08T05:15:45;4.60;;;1.20;;
51066;SDS011;37112;45.892;-123.962;2023-07-08T05:18:16;6.10;;;1.40;;
51066;SDS011;37112;45.892;-123.962;2023-07-08T05:20:51;7.30;;;1.40;;
51066;SDS011;37112;45.892;-123.962;2023-07-08T05:23:23;5.00;;;1.50;;
51066;SDS011;37112;45.892;-123.962;2023-07-08T05:25:53;6.30;;;1.60;;
51066;SDS011;37112;45.892;-123.962;2023-07-08T05:28:27;6.90;;;1.40;;
51066;SDS011;37112;45.892;-123.962;2023-07-08T05:31:19;4.50;;;1.30;;
51066;SDS011;37112;45.892;-123.962;2023-07-08T05:34:07;6.50;;;1.50;;
51066;SDS011;37112;45.892;-123.962;2023-07-08T05:36:37;2.80;;;1.30;;
51066;SDS011;37112;45.892;-123.962;2023-07-08T05:39:00;4.40;;;1.30;;
51066;SDS011;37112;45.892;-123.962;2023-07-08T05:41:31;5.00;;;1.70;;
51066;SDS011;37112;45.892;-123.962;2023-07-08T05:44:11;3.50;;;1.30;;
51066;SDS011;37112;45.892;-123.962;2023-07-08T05:46:33;4.50;;;1.30;;
51066;SDS011;37112;45.892;-123.962;2023-07-08T05:49:04;3.00;;;1.10;;
51066;SDS011;37112;45.892;-123.962;2023-07-08T05:51:35;2.80;;;1.40;;
51066;SDS011;37112;45.892;-123.962;2023-07-08T05:54:07;4.20;;;1.00;;
51066;SDS011;37112;45.892;-123.962;2023-07-08T05:56:27;4.60;;;1.20;;
51066;SDS011;37112;45.892;-123.962;2023-07-08T05:58:59;5.40;;;1.50;;
51066;SDS011;37112;45.892;-123.962;2023-07-08T06:01:30;2.20;;;1.20;;
51066;SDS011;37112;45.892;-123.962;2023-07-08T06:04:01;1.50;;;0.90;;
51066;SDS011;37112;45.892;-123.962;2023-07-08T06:06:32;3.90;;;1.40;;
51066;SDS011;37112;45.892;-123.962;2023-07-08T06:09:02;2.80;;;0.90;;
51066;SDS011;37112;45.892;-123.962;2023-07-08T06:11:32;4.40;;;0.90;;
51066;SDS011;37112;45.892;-123.962;2023-07-08T06:14:03;2.00;;;1.00;;
51066;SDS011;37112;45.892;-123.962;2023-07-08T06:16:34;4.30;;;0.80;;
51066;SDS011;37112;45.892;-123.962;2023-07-08T06:19:07;1.60;;;0.90;;
51066;SDS011;37112;45.892;-123.962;2023-07-08T06:21:38;2.00;;;0.80;;
51066;SDS011;37112;45.892;-123.962;2023-07-08T06:24:08;2.20;;;0.60;;
51066;SDS011;37112;45.892;-123.962;2023-07-08T06:26:39;2.60;;;0.90;;
51066;SDS011;37112;45.892;-123.962;2023-07-08T06:29:10;2.20;;;0.70;;
51066;SDS011;37112;45.892;-123.962;2023-07-08T06:31:42;3.40;;;1.20;;
51066;SDS011;37112;45.892;-123.962;2023-07-08T06:34:06;5.30;;;1.60;;
51066;SDS011;37112;45.892;-123.962;2023-07-08T06:36:36;18.70;;;4.20;;
51066;SDS011;37112;45.892;-123.962;2023-07-08T06:39:07;131.70;;;23.30;;
51066;SDS011;37112;45.892;-123.962;2023-07-08T06:41:38;102.50;;;21.00;;
51066;SDS011;37112;45.892;-123.962;2023-07-08T06:43:57;92.70;;;18.50;;
51066;SDS011;37112;45.892;-123.962;2023-07-08T06:46:27;91.50;;;15.90;;
51066;SDS011;37112;45.892;-123.962;2023-07-08T06:48:58;120.60;;;20.70;;
51066;SDS011;37112;45.892;-123.962;2023-07-08T06:51:12;122.50;;;21.80;;
51066;SDS011;37112;45.892;-123.962;2023-07-08T06:53:42;90.40;;;16.90;;
51066;SDS011;37112;45.892;-123.962;2023-07-08T06:56:13;69.10;;;13.10;;
51066;SDS011;37112;45.892;-123.962;2023-07-08T06:58:43;62.50;;;13.60;;
51066;SDS011;37112;45.892;-123.962;2023-07-08T07:01:14;56.20;;;12.50;;
51066;SDS011;37112;45.892;-123.962;2023-07-08T07:03:44;13.60;;;4.80;;
51066;SDS011;37112;45.892;-123.962;2023-07-08T07:06:14;3.90;;;1.20;;
51066;SDS011;37112;45.892;-123.962;2023-07-08T07:08:45;2.60;;;1.10;;
51066;SDS011;37112;45.892;-123.962;2023-07-08T07:11:16;3.60;;;1.30;;
51066;SDS011;37112;45.892;-123.962;2023-07-08T07:13:47;5.60;;;1.00;;
51066;SDS011;37112;45.892;-123.962;2023-07-08T07:16:19;4.90;;;0.90;;
51066;SDS011;37112;45.892;-123.962;2023-07-08T07:18:50;4.30;;;0.90;;
51066;SDS011;37112;45.892;-123.962;2023-07-08T07:21:03;63.70;;;13.40;;
51066;SDS011;37112;45.892;-123.962;2023-07-08T07:23:34;111.50;;;21.20;;
51066;SDS011;37112;45.892;-123.962;2023-07-08T07:26:06;116.50;;;22.30;;
51066;SDS011;37112;45.892;-123.962;2023-07-08T07:28:36;96.50;;;19.80;;
51066;SDS011;37112;45.892;-123.962;2023-07-08T07:31:07;74.80;;;18.80;;
51066;SDS011;37112;45.892;-123.962;2023-07-08T07:33:38;47.90;;;9.80;;
51066;SDS011;37112;45.892;-123.962;2023-07-08T07:36:09;29.70;;;6.90;;
51066;SDS011;37112;45.892;-123.962;2023-07-08T07:38:39;27.60;;;6.00;;
51066;SDS011;37112;45.892;-123.962;2023-07-08T07:41:10;17.20;;;4.30;;
51066;SDS011;37112;45.892;-123.962;2023-07-08T07:43:41;15.80;;;3.10;;
51066;SDS011;37112;45.892;-123.962;2023-07-08T07:46:11;18.90;;;4.00;;
51066;SDS011;37112;45.892;-123.962;2023-07-08T07:48:41;15.40;;;2.80;;
51066;SDS011;37112;45.892;-123.962;2023-07-08T07:51:04;8.00;;;1.70;;
51066;SDS011;37112;45.892;-123.962;2023-07-08T07:53:36;12.60;;;2.40;;
51066;SDS011;37112;45.892;-123.962;2023-07-08T07:56:07;13.60;;;2.20;;
51066;SDS011;37112;45.892;-123.962;2023-07-08T07:58:37;9.20;;;2.00;;
51066;SDS011;37112;45.892;-123.962;2023-07-08T08:01:08;9.00;;;2.30;;
51066;SDS011;37112;45.892;-123.962;2023-07-08T08:03:39;14.90;;;3.00;;
51066;SDS011;37112;45.892;-123.962;2023-07-08T08:06:09;39.50;;;5.90;;
51066;SDS011;37112;45.892;-123.962;2023-07-08T08:08:40;77.40;;;13.70;;
51066;SDS011;37112;45.892;-123.962;2023-07-08T08:11:11;25.00;;;5.00;;
51066;SDS011;37112;45.892;-123.962;2023-07-08T08:13:41;11.80;;;2.30;;
51066;SDS011;37112;45.892;-123.962;2023-07-08T08:15:57;11.40;;;2.30;;
51066;SDS011;37112;45.892;-123.962;2023-07-08T08:20:45;8.50;;;1.60;;
51066;SDS011;37112;45.892;-123.962;2023-07-08T08:23:17;8.70;;;1.80;;
51066;SDS011;37112;45.892;-123.962;2023-07-08T08:25:48;12.70;;;2.30;;
51066;SDS011;37112;45.892;-123.962;2023-07-08T08:28:19;10.00;;;2.00;;
51066;SDS011;37112;45.892;-123.962;2023-07-08T08:30:50;7.80;;;1.90;;
51066;SDS011;37112;45.892;-123.962;2023-07-08T08:33:21;16.70;;;2.50;;
51066;SDS011;37112;45.892;-123.962;2023-07-08T08:35:52;9.90;;;2.10;;
51066;SDS011;37112;45.892;-123.962;2023-07-08T08:38:23;5.30;;;1.30;;
51066;SDS011;37112;45.892;-123.962;2023-07-08T08:40:53;6.00;;;1.20;;
51066;SDS011;37112;45.892;-123.962;2023-07-08T08:43:29;5.90;;;1.20;;
51066;SDS011;37112;45.892;-123.962;2023-07-08T08:45:56;12.10;;;2.20;;
51066;SDS011;37112;45.892;-123.962;2023-07-08T08:48:23;4.30;;;1.40;;
51066;SDS011;37112;45.892;-123.962;2023-07-08T08:50:49;4.40;;;1.20;;
51066;SDS011;37112;45.892;-123.962;2023-07-08T08:53:24;8.70;;;1.60;;
51066;SDS011;37112;45.892;-123.962;2023-07-08T08:55:57;3.60;;;1.20;;
51066;SDS011;37112;45.892;-123.962;2023-07-08T08:58:36;6.40;;;1.30;;
51066;SDS011;37112;45.892;-123.962;2023-07-08T09:01:10;3.90;;;0.90;;
51066;SDS011;37112;45.892;-123.962;2023-07-08T09:03:34;3.30;;;1.30;;
51066;SDS011;37112;45.892;-123.962;2023-07-08T09:06:11;3.20;;;1.00;;
51066;SDS011;37112;45.892;-123.962;2023-07-08T09:08:44;3.20;;;0.90;;
51066;SDS011;37112;45.892;-123.962;2023-07-08T09:11:25;5.40;;;1.60;;
51066;SDS011;37112;45.892;-123.962;2023-07-08T09:14:06;3.80;;;1.00;;
51066;SDS011;37112;45.892;-123.962;2023-07-08T09:16:49;146.00;;;27.20;;
51066;SDS011;37112;45.892;-123.962;2023-07-08T09:19:26;88.60;;;18.70;;
51066;SDS011;37112;45.892;-123.962;2023-07-08T09:21:57;67.40;;;13.30;;
51066;SDS011;37112;45.892;-123.962;2023-07-08T09:24:33;65.30;;;10.90;;
51066;SDS011;37112;45.892;-123.962;2023-07-08T09:27:09;60.80;;;9.40;;
51066;SDS011;37112;45.892;-123.962;2023-07-08T09:29:39;42.40;;;8.80;;
51066;SDS011;37112;45.892;-123.962;2023-07-08T09:32:06;43.90;;;8.10;;
51066;SDS011;37112;45.892;-123.962;2023-07-08T09:34:45;38.60;;;6.70;;
51066;SDS011;37112;45.892;-123.962;2023-07-08T09:37:25;19.50;;;3.70;;
51066;SDS011;37112;45.892;-123.962;2023-07-08T09:39:59;14.00;;;2.60;;
51066;SDS011;37112;45.892;-123.962;2023-07-08T09:42:33;4.80;;;1.50;;
51066;SDS011;37112;45.892;-123.962;2023-07-08T09:45:12;2.90;;;1.10;;
51066;SDS011;37112;45.892;-123.962;2023-07-08T09:47:36;2.00;;;0.80;;
51066;SDS011;37112;45.892;-123.962;2023-07-08T09:50:16;4.30;;;1.20;;
51066;SDS011;37112;45.892;-123.962;2023-07-08T09:52:47;5.00;;;1.10;;
51066;SDS011;37112;45.892;-123.962;2023-07-08T09:55:23;5.90;;;0.80;;
51066;SDS011;37112;45.892;-123.962;2023-07-08T09:57:55;3.30;;;0.80;;
51066;SDS011;37112;45.892;-123.962;2023-07-08T10:00:31;3.90;;;0.90;;
51066;SDS011;37112;45.892;-123.962;2023-07-08T10:03:08;4.40;;;0.80;;
51066;SDS011;37112;45.892;-123.962;2023-07-08T10:05:45;4.10;;;1.10;;
51066;SDS011;37112;45.892;-123.962;2023-07-08T10:08:17;4.60;;;1.10;;
51066;SDS011;37112;45.892;-123.962;2023-07-08T10:10:40;7.40;;;1.20;;
51066;SDS011;37112;45.892;-123.962;2023-07-08T10:13:15;1.50;;;0.80;;
51066;SDS011;37112;45.892;-123.962;2023-07-08T10:15:49;3.40;;;0.90;;
51066;SDS011;37112;45.892;-123.962;2023-07-08T10:18:12;4.70;;;0.80;;
51066;SDS011;37112;45.892;-123.962;2023-07-08T10:20:49;7.90;;;1.70;;
51066;SDS011;37112;45.892;-123.962;2023-07-08T10:23:31;3.70;;;1.10;;
51066;SDS011;37112;45.892;-123.962;2023-07-08T10:26:10;2.20;;;0.80;;
51066;SDS011;37112;45.892;-123.962;2023-07-08T10:28:33;2.30;;;0.90;;
51066;SDS011;37112;45.892;-123.962;2023-07-08T10:31:11;34.20;;;5.10;;
51066;SDS011;37112;45.892;-123.962;2023-07-08T10:33:59;62.40;;;10.80;;
51066;SDS011;37112;45.892;-123.962;2023-07-08T10:36:45;72.00;;;11.00;;
51066;SDS011;37112;45.892;-123.962;2023-07-08T10:39:26;93.40;;;13.90;;
51066;SDS011;37112;45.892;-123.962;2023-07-08T10:42:14;62.40;;;10.60;;
51066;SDS011;37112;45.892;-123.962;2023-07-08T10:44:58;50.70;;;9.80;;
51066;SDS011;37112;45.892;-123.962;2023-07-08T10:47:36;30.00;;;5.80;;
51066;SDS011;37112;45.892;-123.962;2023-07-08T10:50:25;20.60;;;3.10;;
51066;SDS011;37112;45.892;-123.962;2023-07-08T10:53:21;12.40;;;2.10;;
51066;SDS011;37112;45.892;-123.962;2023-07-08T10:55:50;9.50;;;1.80;;
51066;SDS011;37112;45.892;-123.962;2023-07-08T10:58:28;2.80;;;1.10;;
51066;SDS011;37112;45.892;-123.962;2023-07-08T11:01:02;5.50;;;1.20;;
51066;SDS011;37112;45.892;-123.962;2023-07-08T11:06:29;3.20;;;1.10;;
51066;SDS011;37112;45.892;-123.962;2023-07-08T11:09:09;2.90;;;0.70;;
51066;SDS011;37112;45.892;-123.962;2023-07-08T11:11:43;3.00;;;0.70;;
51066;SDS011;37112;45.892;-123.962;2023-07-08T11:14:19;6.00;;;0.70;;
51066;SDS011;37112;45.892;-123.962;2023-07-08T11:16:53;2.50;;;0.60;;
51066;SDS011;37112;45.892;-123.962;2023-07-08T11:19:32;4.80;;;0.90;;
51066;SDS011;37112;45.892;-123.962;2023-07-08T11:22:08;2.50;;;0.60;;
51066;SDS011;37112;45.892;-123.962;2023-07-08T11:24:31;2.40;;;0.90;;
51066;SDS011;37112;45.892;-123.962;2023-07-08T11:27:08;3.30;;;0.70;;
51066;SDS011;37112;45.892;-123.962;2023-07-08T11:29:39;3.30;;;0.90;;
51066;SDS011;37112;45.892;-123.962;2023-07-08T11:32:17;2.70;;;1.00;;
51066;SDS011;37112;45.892;-123.962;2023-07-08T11:34:50;3.70;;;1.40;;
51066;SDS011;37112;45.892;-123.962;2023-07-08T11:37:23;2.00;;;1.00;;
51066;SDS011;37112;45.892;-123.962;2023-07-08T11:39:57;3.70;;;1.00;;
51066;SDS011;37112;45.892;-123.962;2023-07-08T11:42:35;3.20;;;0.80;;
51066;SDS011;37112;45.892;-123.962;2023-07-08T11:45:27;1.30;;;0.60;;
51066;SDS011;37112;45.892;-123.962;2023-07-08T11:48:06;1.60;;;0.60;;
51066;SDS011;37112;45.892;-123.962;2023-07-08T11:50:40;3.80;;;0.80;;
51066;SDS011;37112;45.892;-123.962;2023-07-08T11:53:12;1.50;;;0.80;;
51066;SDS011;37112;45.892;-123.962;2023-07-08T11:56:00;5.00;;;0.60;;
51066;SDS011;37112;45.892;-123.962;2023-07-08T12:01:22;1.00;;;0.50;;
51066;SDS011;37112;45.892;-123.962;2023-07-08T12:03:48;2.80;;;0.50;;
51066;SDS011;37112;45.892;-123.962;2023-07-08T12:09:16;2.70;;;0.50;;
51066;SDS011;37112;45.892;-123.962;2023-07-08T12:12:04;1.00;;;0.60;;
51066;SDS011;37112;45.892;-123.962;2023-07-08T12:14:41;2.90;;;0.90;;
51066;SDS011;37112;45.892;-123.962;2023-07-08T12:17:12;1.30;;;0.50;;
51066;SDS011;37112;45.892;-123.962;2023-07-08T12:19:45;3.30;;;0.60;;
51066;SDS011;37112;45.892;-123.962;2023-07-08T12:22:20;1.30;;;0.50;;
51066;SDS011;37112;45.892;-123.962;2023-07-08T12:24:51;1.50;;;0.70;;
51066;SDS011;37112;45.892;-123.962;2023-07-08T12:27:11;0.90;;;0.60;;
51066;SDS011;37112;45.892;-123.962;2023-07-08T12:29:42;3.10;;;0.70;;
51066;SDS011;37112;45.892;-123.962;2023-07-08T12:32:13;1.80;;;0.60;;
51066;SDS011;37112;45.892;-123.962;2023-07-08T12:37:14;1.20;;;0.60;;
51066;SDS011;37112;45.892;-123.962;2023-07-08T12:39:44;4.70;;;0.60;;
51066;SDS011;37112;45.892;-123.962;2023-07-08T12:42:27;2.20;;;0.60;;
51066;SDS011;37112;45.892;-123.962;2023-07-08T12:44:48;1.90;;;0.70;;
51066;SDS011;37112;45.892;-123.962;2023-07-08T12:47:19;1.50;;;0.60;;
51066;SDS011;37112;45.892;-123.962;2023-07-08T12:49:51;1.80;;;0.60;;
51066;SDS011;37112;45.892;-123.962;2023-07-08T12:52:22;1.10;;;0.70;;
51066;SDS011;37112;45.892;-123.962;2023-07-08T12:54:54;3.10;;;0.70;;
51066;SDS011;37112;45.892;-123.962;2023-07-08T12:57:14;3.70;;;0.70;;
51066;SDS011;37112;45.892;-123.962;2023-07-08T12:59:47;1.30;;;0.60;;
51066;SDS011;37112;45.892;-123.962;2023-07-08T13:02:10;2.10;;;0.60;;
51066;SDS011;37112;45.892;-123.962;2023-07-08T13:04:47;1.00;;;0.50;;
51066;SDS011;37112;45.892;-123.962;2023-07-08T13:07:30;2.90;;;0.70;;
51066;SDS011;37112;45.892;-123.962;2023-07-08T13:09:55;3.00;;;0.80;;
51066;SDS011;37112;45.892;-123.962;2023-07-08T13:12:25;1.60;;;0.60;;
51066;SDS011;37112;45.892;-123.962;2023-07-08T13:14:56;3.40;;;0.80;;
51066;SDS011;37112;45.892;-123.962;2023-07-08T13:17:17;1.20;;;0.50;;
51066;SDS011;37112;45.892;-123.962;2023-07-08T13:19:48;1.10;;;0.80;;
51066;SDS011;37112;45.892;-123.962;2023-07-08T13:22:20;3.10;;;0.90;;
51066;SDS011;37112;45.892;-123.962;2023-07-08T13:25:00;1.40;;;0.60;;
51066;SDS011;37112;45.892;-123.962;2023-07-08T13:27:20;3.70;;;0.80;;
51066;SDS011;37112;45.892;-123.962;2023-07-08T13:29:52;1.70;;;0.60;;
51066;SDS011;37112;45.892;-123.962;2023-07-08T13:35:00;1.30;;;0.60;;
51066;SDS011;37112;45.892;-123.962;2023-07-08T13:37:25;4.30;;;0.50;;
51066;SDS011;37112;45.892;-123.962;2023-07-08T13:39:47;1.10;;;0.60;;
51066;SDS011;37112;45.892;-123.962;2023-07-08T13:42:20;3.60;;;0.80;;
51066;SDS011;37112;45.892;-123.962;2023-07-08T13:44:51;0.60;;;0.50;;
51066;SDS011;37112;45.892;-123.962;2023-07-08T13:47:23;1.00;;;0.70;;
51066;SDS011;37112;45.892;-123.962;2023-07-08T13:49:59;0.90;;;0.60;;
51066;SDS011;37112;45.892;-123.962;2023-07-08T13:52:33;2.00;;;0.70;;
51066;SDS011;37112;45.892;-123.962;2023-07-08T13:54:54;2.80;;;0.60;;
51066;SDS011;37112;45.892;-123.962;2023-07-08T13:57:31;1.40;;;0.50;;
51066;SDS011;37112;45.892;-123.962;2023-07-08T14:00:08;5.00;;;0.60;;
51066;SDS011;37112;45.892;-123.962;2023-07-08T14:02:39;3.20;;;0.90;;
51066;SDS011;37112;45.892;-123.962;2023-07-08T14:05:13;1.80;;;0.50;;
51066;SDS011;37112;45.892;-123.962;2023-07-08T14:07:47;2.20;;;1.00;;
51066;SDS011;37112;45.892;-123.962;2023-07-08T14:10:19;1.10;;;0.70;;
51066;SDS011;37112;45.892;-123.962;2023-07-08T14:12:50;0.90;;;0.60;;
51066;SDS011;37112;45.892;-123.962;2023-07-08T14:15:10;1.60;;;0.50;;
51066;SDS011;37112;45.892;-123.962;2023-07-08T14:17:42;1.60;;;0.50;;
51066;SDS011;37112;45.892;-123.962;2023-07-08T14:20:16;2.00;;;0.50;;
51066;SDS011;37112;45.892;-123.962;2023-07-08T14:22:47;1.00;;;0.50;;
51066;SDS011;37112;45.892;-123.962;2023-07-08T14:25:20;1.50;;;0.60;;
51066;SDS011;37112;45.892;-123.962;2023-07-08T14:27:49;2.30;;;0.60;;
51066;SDS011;37112;45.892;-123.962;2023-07-08T14:30:20;2.30;;;0.60;;
51066;SDS011;37112;45.892;-123.962;2023-07-08T14:32:51;1.00;;;0.60;;
51066;SDS011;37112;45.892;-123.962;2023-07-08T14:35:12;2.00;;;0.60;;
51066;SDS011;37112;45.892;-123.962;2023-07-08T14:37:30;5.20;;;0.70;;
51066;SDS011;37112;45.892;-123.962;2023-07-08T14:39:55;2.10;;;0.50;;
51066;SDS011;37112;45.892;-123.962;2023-07-08T14:42:26;2.20;;;0.50;;
51066;SDS011;37112;45.892;-123.962;2023-07-08T14:44:57;0.90;;;0.50;;
51066;SDS011;37112;45.892;-123.962;2023-07-08T14:47:28;4.20;;;0.50;;
51066;SDS011;37112;45.892;-123.962;2023-07-08T14:49:59;1.20;;;0.60;;